createdAt,value
2023-02-08T00:01:10.048Z,103784.41
2023-02-08T00:03:37.586Z,103784.66
2023-02-08T00:06:05.585Z,103783.13
2023-02-08T00:08:33.222Z,103782.34
2023-02-08T00:11:00.163Z,103774.13
2023-02-08T00:13:26.774Z,103783.84
2023-02-08T00:15:54.795Z,103780.78
2023-02-08T00:18:22.267Z,103773.31
2023-02-08T00:20:49.204Z,103780.00
2023-02-08T00:23:15.776Z,103769.47
2023-02-08T00:25:42.822Z,103772.28
2023-02-08T00:28:12.649Z,103767.28
2023-02-08T00:30:40.083Z,103758.81
2023-02-08T00:33:07.372Z,103758.97
2023-02-08T00:35:34.585Z,103757.56
2023-02-08T00:38:01.659Z,103755.38
2023-02-08T00:40:28.682Z,103748.19
2023-02-08T00:42:55.179Z,103749.22
2023-02-08T00:45:23.582Z,103746.66
2023-02-08T00:47:50.499Z,103751.44
2023-02-08T00:50:17.235Z,103745.13
2023-02-08T00:52:44.059Z,103736.91
2023-02-08T00:55:11.017Z,103741.53
2023-02-08T00:57:37.636Z,103737.94
2023-02-08T01:00:05.521Z,103741.25
2023-02-08T01:02:33.197Z,103731.00
2023-02-08T01:05:00.321Z,103735.59
2023-02-08T01:07:27.336Z,103734.06
2023-02-08T01:09:53.870Z,103728.94
2023-02-08T01:12:21.230Z,103736.78
2023-02-08T01:14:47.852Z,103741.47
2023-02-08T01:17:15.555Z,103734.44
2023-02-08T01:19:42.658Z,103736.88
2023-02-08T01:22:09.658Z,103736.34
2023-02-08T01:24:36.882Z,103738.13
2023-02-08T01:27:04.680Z,103731.34
2023-02-08T01:29:31.642Z,103737.09
2023-02-08T01:31:58.926Z,103741.22
2023-02-08T01:34:26.096Z,103735.44
2023-02-08T01:36:53.269Z,103734.28
2023-02-08T01:39:20.174Z,103729.66
2023-02-08T01:41:47.129Z,103735.53
2023-02-08T01:44:13.775Z,103733.75
2023-02-08T01:46:44.794Z,103721.84
2023-02-08T01:49:15.170Z,103721.97
2023-02-08T01:51:45.744Z,103722.44
2023-02-08T01:54:13.770Z,103719.63
2023-02-08T01:56:42.803Z,103720.78
2023-02-08T01:59:13.635Z,103713.31
2023-02-08T02:01:41.356Z,103726.03
2023-02-08T02:04:08.619Z,103716.69
2023-02-08T02:06:37.847Z,103715.78
2023-02-08T02:09:12.047Z,103714.44
2023-02-08T02:11:40.127Z,103723.41
2023-02-08T02:14:08.184Z,103722.91
2023-02-08T02:16:35.634Z,103728.53
2023-02-08T02:19:11.666Z,103723.69
2023-02-08T02:21:38.738Z,103718.06
2023-02-08T02:24:28.768Z,103718.19
2023-02-08T02:26:55.510Z,103718.28
2023-02-08T02:29:31.775Z,103716.75
2023-02-08T02:32:12.299Z,103718.66
2023-02-08T02:34:46.326Z,103712.38
2023-02-08T02:37:16.313Z,103712.38
2023-02-08T02:39:50.703Z,103711.34
2023-02-08T02:42:48.296Z,103710.19
2023-02-08T02:45:26.464Z,103710.34
2023-02-08T02:48:02.522Z,103699.56
2023-02-08T02:50:33.205Z,103693.41
2023-02-08T02:53:06.148Z,103689.59
2023-02-08T02:55:34.408Z,103690.59
2023-02-08T02:58:02.478Z,103693.69
2023-02-08T03:00:30.992Z,103695.47
2023-02-08T03:02:58.711Z,103697.47
2023-02-08T03:05:26.487Z,103703.66
2023-02-08T03:08:12.079Z,103705.16
2023-02-08T03:10:48.314Z,103705.66
2023-02-08T03:13:34.207Z,103708.56
2023-02-08T03:16:01.346Z,103712.56
2023-02-08T03:18:37.042Z,103708.22
2023-02-08T03:21:03.553Z,103716.94
2023-02-08T03:23:39.415Z,103706.16
2023-02-08T03:26:25.100Z,103714.59
2023-02-08T03:29:01.993Z,103723.56
2023-02-08T03:31:28.785Z,103718.97
2023-02-08T03:34:14.282Z,103716.41
2023-02-08T03:36:46.987Z,103718.19
2023-02-08T03:39:16.077Z,103718.44
2023-02-08T03:41:46.325Z,103726.66
2023-02-08T03:44:16.484Z,103722.69
2023-02-08T03:46:59.815Z,103715.06
2023-02-08T03:49:31.121Z,103717.63
2023-02-08T03:52:00.247Z,103718.41
2023-02-08T03:54:28.975Z,103718.28
2023-02-08T03:57:08.741Z,103726.84
2023-02-08T03:59:38.885Z,103724.28
2023-02-08T04:02:07.681Z,103715.22
2023-02-08T04:04:35.472Z,103713.69
2023-02-08T04:07:02.529Z,103712.53
2023-02-08T04:09:29.214Z,103710.75
2023-02-08T04:11:55.777Z,103711.06
2023-02-08T04:14:22.983Z,103723.47
2023-02-08T04:16:49.797Z,103727.06
2023-02-08T04:19:16.490Z,103723.47
2023-02-08T04:21:43.378Z,103719.84
2023-02-08T04:24:10.478Z,103727.78
2023-02-08T04:26:37.305Z,103721.75
2023-02-08T04:29:04.489Z,103728.03
2023-02-08T04:31:31.913Z,103727.63
2023-02-08T04:33:58.826Z,103731.34
2023-02-08T04:36:26.436Z,103724.16
2023-02-08T04:38:53.368Z,103725.97
2023-02-08T04:41:20.604Z,103734.41
2023-02-08T04:43:47.051Z,103733.38
2023-02-08T04:46:14.232Z,103730.66
2023-02-08T04:48:41.408Z,103734.75
2023-02-08T04:51:07.985Z,103742.56
2023-02-08T04:53:35.035Z,103732.03
2023-02-08T04:56:01.984Z,103728.72
2023-02-08T04:58:28.914Z,103738.47
2023-02-08T05:00:55.576Z,103725.41
2023-02-08T05:03:22.584Z,103722.84
2023-02-08T05:05:56.732Z,103729.44
2023-02-08T05:08:23.770Z,103722.50
2023-02-08T05:10:50.694Z,103726.31
2023-02-08T05:13:17.805Z,103727.22
2023-02-08T05:15:44.886Z,103730.38
2023-02-08T05:18:11.704Z,103732.81
2023-02-08T05:20:38.451Z,103723.88
2023-02-08T05:23:06.057Z,103725.16
2023-02-08T05:25:33.189Z,103718.38
2023-02-08T05:28:00.613Z,103718.50
2023-02-08T05:30:27.661Z,103722.84
2023-02-08T05:32:54.566Z,103718.38
2023-02-08T05:35:21.528Z,103725.63
2023-02-08T05:37:48.207Z,103728.44
2023-02-08T05:40:14.725Z,103733.84
2023-02-08T05:42:42.466Z,103736.00
2023-02-08T05:45:09.147Z,103733.56
2023-02-08T05:47:36.541Z,103730.00
2023-02-08T05:50:03.696Z,103733.56
2023-02-08T05:52:30.296Z,103729.06
2023-02-08T05:54:57.020Z,103731.47
2023-02-08T05:57:23.950Z,103725.34
2023-02-08T05:59:50.626Z,103736.59
2023-02-08T06:02:17.566Z,103736.03
2023-02-08T06:04:44.201Z,103736.31
2023-02-08T06:07:11.501Z,103741.72
2023-02-08T06:09:38.434Z,103736.88
2023-02-08T06:12:05.355Z,103732.94
2023-02-08T06:14:32.333Z,103740.50
2023-02-08T06:16:59.374Z,103742.91
2023-02-08T06:19:26.138Z,103745.66
2023-02-08T06:21:53.331Z,103741.44
2023-02-08T06:24:20.145Z,103742.97
2023-02-08T06:26:47.140Z,103732.75
2023-02-08T06:29:13.824Z,103743.41
2023-02-08T06:32:00.316Z,103735.16
2023-02-08T06:34:27.185Z,103733.50
2023-02-08T06:36:54.437Z,103732.59
2023-02-08T06:39:21.412Z,103726.88
2023-02-08T06:41:48.412Z,103725.25
2023-02-08T06:44:15.064Z,103714.84
2023-02-08T06:46:42.293Z,103725.81
2023-02-08T06:49:09.386Z,103718.66
2023-02-08T06:51:36.445Z,103721.97
2023-02-08T06:54:04.096Z,103717.88
2023-02-08T06:56:31.265Z,103715.31
2023-02-08T06:58:57.852Z,103711.25
2023-02-08T07:01:25.361Z,103715.25
2023-02-08T07:03:52.645Z,103712.28
2023-02-08T07:06:19.981Z,103715.59
2023-02-08T07:08:47.293Z,103711.72
2023-02-08T07:11:15.501Z,103716.66
2023-02-08T07:13:43.160Z,103709.56
2023-02-08T07:16:10.191Z,103711.84
2023-02-08T07:18:37.397Z,103718.66
2023-02-08T07:21:04.164Z,103712.91
2023-02-08T07:23:31.313Z,103717.13
2023-02-08T07:26:02.398Z,103712.81
2023-02-08T07:28:29.352Z,103709.53
2023-02-08T07:30:56.954Z,103713.09
2023-02-08T07:33:24.265Z,103711.28
2023-02-08T07:35:51.194Z,103704.69
2023-02-08T07:38:20.624Z,103705.69
2023-02-08T07:40:48.100Z,103704.94
2023-02-08T07:43:14.837Z,103699.09
2023-02-08T07:45:41.622Z,103700.09
2023-02-08T07:48:09.011Z,103689.78
2023-02-08T07:50:36.491Z,103693.25
2023-02-08T07:53:03.010Z,103697.34
2023-02-08T07:55:29.913Z,103697.88
2023-02-08T07:57:57.352Z,103701.47
2023-02-08T08:00:25.093Z,103690.59
2023-02-08T08:02:52.149Z,103692.66
2023-02-08T08:05:18.884Z,103690.53
2023-02-08T08:07:45.953Z,103697.44
2023-02-08T08:10:13.269Z,103696.94
2023-02-08T08:12:40.198Z,103697.84
2023-02-08T08:15:07.310Z,103690.06
2023-02-08T08:17:33.996Z,103697.00
2023-02-08T08:20:01.214Z,103694.56
2023-02-08T08:22:27.990Z,103700.84
2023-02-08T08:24:55.691Z,103689.63
2023-02-08T08:27:22.686Z,103681.72
2023-02-08T08:29:49.423Z,103692.50
2023-02-08T08:32:16.171Z,103684.03
2023-02-08T08:34:43.106Z,103689.16
2023-02-08T08:37:09.933Z,103692.53
2023-02-08T08:39:37.261Z,103683.84
2023-02-08T08:42:04.415Z,103674.38
2023-02-08T08:44:31.431Z,103673.13
2023-02-08T08:46:58.780Z,103676.19
2023-02-08T08:49:27.220Z,103670.53
2023-02-08T08:51:54.151Z,103668.00
2023-02-08T08:54:21.581Z,103668.50
2023-02-08T08:56:48.685Z,103670.06
2023-02-08T08:59:15.960Z,103660.31
2023-02-08T09:01:43.396Z,103665.19
2023-02-08T09:04:10.817Z,103659.00
2023-02-08T09:06:38.637Z,103678.53
2023-02-08T09:09:07.279Z,103678.38
2023-02-08T09:11:34.434Z,103672.19
2023-02-08T09:14:04.899Z,103679.50
2023-02-08T09:16:32.521Z,103682.00
2023-02-08T09:19:03.409Z,103674.53
2023-02-08T09:21:31.430Z,103672.91
2023-02-08T09:23:58.642Z,103665.16
2023-02-08T09:26:26.700Z,103665.66
2023-02-08T09:28:53.804Z,103674.03
2023-02-08T09:31:25.071Z,103673.72
2023-02-08T09:33:53.721Z,103665.16
2023-02-08T09:36:21.170Z,103665.94
2023-02-08T09:38:48.857Z,103667.31
2023-02-08T09:41:28.377Z,103664.88
2023-02-08T09:43:58.474Z,103667.78
2023-02-08T09:46:27.796Z,103675.88
2023-02-08T09:48:56.382Z,103675.88
2023-02-08T09:51:23.828Z,103673.44
2023-02-08T09:53:54.131Z,103680.84
2023-02-08T09:56:26.658Z,103680.84
2023-02-08T09:58:55.150Z,103686.31
2023-02-08T10:01:27.696Z,103686.13
2023-02-08T10:04:16.015Z,103686.47
2023-02-08T10:06:42.762Z,103677.97
2023-02-08T10:09:16.291Z,103676.63
2023-02-08T10:11:48.920Z,103680.22
2023-02-08T10:14:33.892Z,103682.22
2023-02-08T10:17:01.523Z,103677.75
2023-02-08T10:19:28.480Z,103680.66
2023-02-08T10:22:11.092Z,103675.06
2023-02-08T10:24:40.887Z,103676.41
2023-02-08T10:27:16.275Z,103676.16
2023-02-08T10:30:04.721Z,103679.59
2023-02-08T10:32:39.848Z,103674.13
2023-02-08T10:35:11.427Z,103667.59
2023-02-08T10:37:40.494Z,103667.09
2023-02-08T10:40:26.679Z,103661.69
2023-02-08T10:43:00.990Z,103662.78
2023-02-08T10:45:30.343Z,103668.38
2023-02-08T10:48:01.745Z,103660.69
2023-02-08T10:50:36.278Z,103658.88
2023-02-08T10:53:04.550Z,103657.13
2023-02-08T10:55:34.185Z,103654.19
2023-02-08T10:58:04.446Z,103656.97
2023-02-08T11:00:34.778Z,103649.63
2023-02-08T11:03:04.769Z,103651.44
2023-02-08T11:05:31.387Z,103648.13
2023-02-08T11:08:05.431Z,103646.53
2023-02-08T11:10:33.458Z,103648.53
2023-02-08T11:13:06.805Z,103639.38
2023-02-08T11:15:47.132Z,103637.00
2023-02-08T11:18:22.712Z,103637.19
2023-02-08T11:20:51.489Z,103628.88
2023-02-08T11:23:21.896Z,103618.16
2023-02-08T11:25:49.122Z,103616.09
2023-02-08T11:28:30.211Z,103616.31
2023-02-08T11:31:01.699Z,103612.06
2023-02-08T11:33:29.697Z,103611.25
2023-02-08T11:36:01.688Z,103605.00
2023-02-08T11:38:29.361Z,103607.66
2023-02-08T11:40:58.585Z,103606.25
2023-02-08T11:43:33.863Z,103602.53
2023-02-08T11:46:02.660Z,103594.84
2023-02-08T11:48:48.886Z,103594.66
2023-02-08T11:51:25.160Z,103592.69
2023-02-08T11:53:53.355Z,103588.78
2023-02-08T11:56:21.660Z,103587.69
2023-02-08T11:58:57.392Z,103588.16
2023-02-08T12:01:26.405Z,103580.38
2023-02-08T12:03:57.398Z,103579.06
2023-02-08T12:06:48.106Z,103573.03
2023-02-08T12:09:27.331Z,103577.03
2023-02-08T12:12:05.883Z,103566.84
2023-02-08T12:14:33.117Z,103560.16
2023-02-08T12:17:20.120Z,103560.56
2023-02-08T12:20:07.814Z,103557.22
2023-02-08T12:22:39.524Z,103554.28
2023-02-08T12:25:34.412Z,103539.69
2023-02-08T12:28:16.619Z,103545.94
2023-02-08T12:30:52.699Z,103542.03
2023-02-08T12:33:35.593Z,103543.97
2023-02-08T12:36:17.435Z,103536.66
2023-02-08T12:39:19.190Z,103533.28
2023-02-08T12:41:58.096Z,103536.22
2023-02-08T12:44:27.885Z,103528.44
2023-02-08T12:46:55.074Z,103522.38
2023-02-08T12:49:39.979Z,103527.81
2023-02-08T12:52:29.168Z,103525.41
2023-02-08T12:55:14.620Z,103524.13
2023-02-08T12:57:44.143Z,103514.28
2023-02-08T13:00:25.558Z,103513.53
2023-02-08T13:02:57.540Z,103511.72
2023-02-08T13:05:28.126Z,103508.00
2023-02-08T13:07:59.543Z,103498.75
2023-02-08T13:10:26.962Z,103496.50
2023-02-08T13:12:57.321Z,103495.88
2023-02-08T13:15:31.347Z,103486.50
2023-02-08T13:17:59.168Z,103483.22
2023-02-08T13:20:26.091Z,103480.91
2023-02-08T13:22:54.888Z,103469.13
2023-02-08T13:25:34.570Z,103458.91
2023-02-08T13:28:02.735Z,103457.28
2023-02-08T13:30:31.451Z,103451.94
2023-02-08T13:32:59.444Z,103453.25
2023-02-08T13:35:30.325Z,103453.97
2023-02-08T13:38:16.719Z,103448.72
2023-02-08T13:40:44.915Z,103442.72
2023-02-08T13:43:38.324Z,103432.34
2023-02-08T13:46:06.574Z,103424.22
2023-02-08T13:48:41.715Z,103426.78
2023-02-08T13:51:28.309Z,103428.16
2023-02-08T13:53:55.172Z,103419.56
2023-02-08T13:56:38.676Z,103417.94
2023-02-08T13:59:26.559Z,103415.13
2023-02-08T14:02:19.457Z,103408.16
2023-02-08T14:04:49.853Z,103405.03
2023-02-08T14:07:38.707Z,103412.03
2023-02-08T14:10:09.532Z,103403.81
2023-02-08T14:12:55.683Z,103400.44
2023-02-08T14:15:22.599Z,103402.94
2023-02-08T14:17:50.740Z,103398.16
2023-02-08T14:20:22.131Z,103393.53
2023-02-08T14:22:50.465Z,103388.94
2023-02-08T14:25:22.378Z,103382.88
2023-02-08T14:27:59.823Z,103383.59
2023-02-08T14:30:33.687Z,103373.75
2023-02-08T14:33:03.477Z,103374.66
2023-02-08T14:35:30.804Z,103364.13
2023-02-08T14:38:16.578Z,103362.75
2023-02-08T14:40:49.314Z,103354.84
2023-02-08T14:43:19.043Z,103355.09
2023-02-08T14:45:50.366Z,103344.53
2023-02-08T14:48:23.379Z,103347.28
2023-02-08T14:50:59.981Z,103333.91
2023-02-08T14:53:30.800Z,103329.13
2023-02-08T14:56:18.915Z,103334.41
2023-02-08T14:58:57.190Z,103338.59
2023-02-08T15:01:27.208Z,103328.78
2023-02-08T15:04:01.739Z,103334.81
2023-02-08T15:06:38.152Z,103330.22
2023-02-08T15:09:06.729Z,103326.00
2023-02-08T15:11:35.108Z,103317.47
2023-02-08T15:14:05.971Z,103313.38
2023-02-08T15:16:36.258Z,103318.97
2023-02-08T15:19:04.975Z,103315.03
2023-02-08T15:21:32.350Z,103307.34
2023-02-08T15:23:59.509Z,103313.22
2023-02-08T15:26:26.789Z,103303.53
2023-02-08T15:28:54.362Z,103310.09
2023-02-08T15:31:28.818Z,103302.00
2023-02-08T15:33:55.799Z,103302.44
2023-02-08T15:36:33.245Z,103302.25
2023-02-08T15:39:02.632Z,103306.81
2023-02-08T15:41:31.066Z,103317.16
2023-02-08T15:44:45.294Z,103313.84
2023-02-08T15:47:32.202Z,103311.44
2023-02-08T15:50:00.192Z,103297.78
2023-02-08T15:52:30.117Z,103300.25
2023-02-08T15:54:56.910Z,103305.09
2023-02-08T15:57:24.291Z,103298.97
2023-02-08T15:59:51.123Z,103296.13
2023-02-08T16:02:23.608Z,103291.19
2023-02-08T16:04:50.455Z,103287.28
2023-02-08T16:07:37.239Z,103283.28
2023-02-08T16:10:05.840Z,103284.91
2023-02-08T16:12:32.681Z,103281.59
2023-02-08T16:14:59.541Z,103282.38
2023-02-08T16:17:37.784Z,103276.41
2023-02-08T16:20:26.552Z,103270.66
2023-02-08T16:22:56.985Z,103269.25
2023-02-08T16:25:24.944Z,103265.88
2023-02-08T16:27:52.333Z,103266.91
2023-02-08T16:30:20.556Z,103272.28
2023-02-08T16:32:47.464Z,103269.50
2023-02-08T16:35:15.751Z,103269.56
2023-02-08T16:37:42.573Z,103267.97
2023-02-08T16:40:27.945Z,103260.41
2023-02-08T16:43:14.894Z,103267.59
2023-02-08T16:45:41.839Z,103265.09
2023-02-08T16:48:33.273Z,103265.38
2023-02-08T16:51:00.125Z,103252.69
2023-02-08T16:53:41.431Z,103258.88
2023-02-08T16:56:10.164Z,103253.88
2023-02-08T16:58:37.040Z,103257.94
2023-02-08T17:01:04.606Z,103253.75
2023-02-08T17:03:32.663Z,103247.19
2023-02-08T17:06:00.335Z,103242.41
2023-02-08T17:08:27.919Z,103248.25
2023-02-08T17:10:59.202Z,103245.16
2023-02-08T17:13:29.095Z,103246.31
2023-02-08T17:15:57.787Z,103239.72
2023-02-08T17:18:25.011Z,103247.75
2023-02-08T17:20:57.801Z,103238.47
2023-02-08T17:23:24.733Z,103239.91
2023-02-08T17:25:51.828Z,103247.19
2023-02-08T17:28:19.617Z,103237.22
2023-02-08T17:30:47.620Z,103238.59
2023-02-08T17:33:20.722Z,103227.91
2023-02-08T17:35:48.958Z,103228.44
2023-02-08T17:38:16.152Z,103224.41
2023-02-08T17:40:43.501Z,103230.19
2023-02-08T17:43:10.868Z,103229.81
2023-02-08T17:45:39.366Z,103224.28
2023-02-08T17:48:07.309Z,103221.91
2023-02-08T17:50:34.923Z,103218.00
2023-02-08T17:53:03.515Z,103215.09
2023-02-08T17:55:30.804Z,103208.69
2023-02-08T17:57:57.780Z,103204.13
2023-02-08T18:00:25.296Z,103204.94
2023-02-08T18:02:53.319Z,103207.41
2023-02-08T18:05:21.967Z,103203.47
2023-02-08T18:07:48.738Z,103210.91
2023-02-08T18:10:16.017Z,103210.69
2023-02-08T18:12:42.880Z,103211.41
2023-02-08T18:15:12.650Z,103212.31
2023-02-08T18:17:40.392Z,103217.84
2023-02-08T18:20:08.148Z,103221.78
2023-02-08T18:22:36.606Z,103214.25
2023-02-08T18:25:04.490Z,103217.19
2023-02-08T18:27:31.541Z,103210.47
2023-02-08T18:29:58.833Z,103203.72
2023-02-08T18:32:28.101Z,103203.91
2023-02-08T18:34:55.264Z,103207.28
2023-02-08T18:37:23.270Z,103200.16
2023-02-08T18:39:52.211Z,103191.59
2023-02-08T18:42:20.311Z,103201.06
2023-02-08T18:44:47.982Z,103200.16
2023-02-08T18:47:15.501Z,103193.19
2023-02-08T18:49:42.734Z,103193.91
2023-02-08T18:52:10.883Z,103191.03
2023-02-08T18:54:40.944Z,103191.03
2023-02-08T18:57:10.905Z,103201.16
2023-02-08T18:59:39.261Z,103197.22
2023-02-08T19:02:08.024Z,103207.72
2023-02-08T19:04:39.002Z,103197.03
2023-02-08T19:07:09.071Z,103200.59
2023-02-08T19:09:37.684Z,103193.44
2023-02-08T19:12:05.769Z,103202.97
2023-02-08T19:14:32.341Z,103195.84
2023-02-08T19:16:59.405Z,103203.19
2023-02-08T19:19:26.967Z,103204.59
2023-02-08T19:21:53.817Z,103197.25
2023-02-08T19:24:20.676Z,103197.97
2023-02-08T19:26:47.510Z,103204.59
2023-02-08T19:29:16.452Z,103203.63
2023-02-08T19:31:44.224Z,103204.19
2023-02-08T19:34:12.015Z,103197.75
2023-02-08T19:36:44.189Z,103197.84
2023-02-08T19:39:13.613Z,103201.00
2023-02-08T19:41:41.139Z,103195.25
2023-02-08T19:44:10.912Z,103189.31
2023-02-08T19:46:43.200Z,103179.59
2023-02-08T19:49:11.236Z,103183.81
2023-02-08T19:51:37.903Z,103178.97
2023-02-08T19:54:07.092Z,103180.44
2023-02-08T19:56:34.038Z,103186.38
2023-02-08T19:59:03.857Z,103183.13
2023-02-08T20:01:33.110Z,103186.38
2023-02-08T20:04:00.468Z,103187.59
2023-02-08T20:06:37.133Z,103193.59
2023-02-08T20:09:04.666Z,103197.00
2023-02-08T20:11:33.177Z,103195.19
2023-02-08T20:14:00.232Z,103199.44
2023-02-08T20:16:31.229Z,103206.28
2023-02-08T20:18:58.878Z,103203.50
2023-02-08T20:21:26.879Z,103202.50
2023-02-08T20:23:53.849Z,103197.94
2023-02-08T20:26:25.248Z,103202.38
2023-02-08T20:28:54.642Z,103206.44
2023-02-08T20:31:26.941Z,103206.03
2023-02-08T20:33:54.630Z,103203.56
2023-02-08T20:36:23.355Z,103208.59
2023-02-08T20:38:51.938Z,103201.16
2023-02-08T20:41:19.592Z,103200.06
2023-02-08T20:43:46.898Z,103203.88
2023-02-08T20:46:22.273Z,103207.69
2023-02-08T20:48:49.885Z,103207.06
2023-02-08T20:51:18.836Z,103209.56
2023-02-08T20:53:46.077Z,103211.38
2023-02-08T20:56:16.907Z,103202.41
2023-02-08T20:58:44.439Z,103208.50
2023-02-08T21:01:12.398Z,103204.94
2023-02-08T21:03:39.589Z,103207.19
2023-02-08T21:06:21.094Z,103211.00
2023-02-08T21:08:52.186Z,103209.41
2023-02-08T21:11:20.547Z,103210.66
2023-02-08T21:13:47.668Z,103214.56
2023-02-08T21:16:14.873Z,103210.53
2023-02-08T21:18:41.592Z,103216.56
2023-02-08T21:21:09.949Z,103224.81
2023-02-08T21:23:37.524Z,103227.41
2023-02-08T21:26:05.336Z,103221.06
2023-02-08T21:28:32.425Z,103225.75
2023-02-08T21:31:01.458Z,103223.19
2023-02-08T21:33:28.394Z,103227.13
2023-02-08T21:35:55.169Z,103217.94
2023-02-08T21:38:22.197Z,103221.50
2023-02-08T21:40:48.844Z,103214.81
2023-02-08T21:43:15.708Z,103226.00
2023-02-08T21:45:42.952Z,103213.25
2023-02-08T21:48:10.036Z,103204.53
2023-02-08T21:50:57.054Z,103213.03
2023-02-08T21:53:42.624Z,103203.66
2023-02-08T21:56:09.986Z,103197.84
2023-02-08T21:58:36.759Z,103198.72
2023-02-08T22:01:05.911Z,103198.47
2023-02-08T22:03:34.448Z,103195.56
2023-02-08T22:06:01.513Z,103185.75
2023-02-08T22:08:28.411Z,103188.00
2023-02-08T22:10:58.280Z,103182.16
2023-02-08T22:13:25.555Z,103179.72
2023-02-08T22:15:52.537Z,103183.50
2023-02-08T22:18:19.128Z,103175.56
2023-02-08T22:20:45.999Z,103182.16
2023-02-08T22:23:13.030Z,103182.16
2023-02-08T22:25:39.705Z,103176.16
2023-02-08T22:28:08.232Z,103183.75
2023-02-08T22:30:35.156Z,103177.50
2023-02-08T22:33:02.100Z,103180.88
2023-02-08T22:35:28.892Z,103178.84
2023-02-08T22:37:55.940Z,103179.06
2023-02-08T22:40:22.996Z,103181.53
2023-02-08T22:42:49.769Z,103184.22
2023-02-08T22:45:16.790Z,103182.53
2023-02-08T22:47:45.746Z,103181.31
2023-02-08T22:50:13.276Z,103182.97
2023-02-08T22:52:40.648Z,103181.56
2023-02-08T22:55:09.046Z,103184.66
2023-02-08T22:57:36.181Z,103180.22
2023-02-08T23:00:04.595Z,103179.09
2023-02-08T23:02:32.047Z,103177.53
2023-02-08T23:04:58.778Z,103173.53
2023-02-08T23:07:25.687Z,103166.47
2023-02-08T23:09:52.828Z,103175.97
2023-02-08T23:12:19.949Z,103165.50
2023-02-08T23:14:46.692Z,103167.28
2023-02-08T23:17:14.189Z,103165.03
2023-02-08T23:19:41.202Z,103158.13
2023-02-08T23:22:08.304Z,103154.56
2023-02-08T23:24:35.328Z,103146.84
2023-02-08T23:27:02.057Z,103147.97
2023-02-08T23:29:28.904Z,103143.38
2023-02-08T23:31:56.030Z,103142.06
2023-02-08T23:34:23.003Z,103137.13
2023-02-08T23:36:50.213Z,103137.56
2023-02-08T23:39:17.231Z,103123.97
2023-02-08T23:41:43.963Z,103129.31
2023-02-08T23:44:10.953Z,103118.25
2023-02-08T23:46:37.749Z,103104.63
2023-02-08T23:49:04.558Z,103105.19
2023-02-08T23:51:31.405Z,103104.63
2023-02-08T23:53:58.159Z,103110.53
2023-02-08T23:56:26.344Z,103111.91
2023-02-08T23:58:54.765Z,103103.00
